Terminal Aerodrome Forecast
Issued by NWS

Home | Current Version | Previous Version | Text Only | Print | Product List | Glossary On
Versions: 1 2 3 4 5 6 7 8 9 10 11 12 13 14 15 16 17 18
000
FTUS41 KPBZ 222331
TAFFKL
TAF
KFKL 222331Z 2300/2324 15009KT P6SM -SHRA OVC060 WS020/19035KT
     FM230300 15010KT P6SM VCSH OVC050 WS020/19040KT
     FM230700 16009KT 4SM -SHRA OVC030 WS020/20035KT
     FM231400 23013G27KT P6SM VCSH OVC035
     FM232100 23014G30KT P6SM -SHRASN OVC020=

USA.gov is the U.S. government's official web portal to all federal, state and local government web resources and services.